sensor_id;sensor_type;location;lat;lon;timestamp;P1;durP1;ratioP1;P2;durP2;ratioP2
21731;SDS011;11028;51.156;17.130;2024-03-06T00:00:27;65.07;;;29.90;;
21731;SDS011;11028;51.156;17.130;2024-03-06T00:07:45;67.72;;;31.80;;
21731;SDS011;11028;51.156;17.130;2024-03-06T00:15:04;60.25;;;30.85;;
21731;SDS011;11028;51.156;17.130;2024-03-06T00:22:24;74.38;;;32.33;;
21731;SDS011;11028;51.156;17.130;2024-03-06T00:29:42;70.20;;;33.92;;
21731;SDS011;11028;51.156;17.130;2024-03-06T00:37:01;64.47;;;31.65;;
21731;SDS011;11028;51.156;17.130;2024-03-06T00:44:21;68.32;;;32.33;;
21731;SDS011;11028;51.156;17.130;2024-03-06T01:00:17;71.38;;;30.80;;
21731;SDS011;11028;51.156;17.130;2024-03-06T01:07:37;67.28;;;30.35;;
21731;SDS011;11028;51.156;17.130;2024-03-06T01:14:55;66.32;;;32.10;;
21731;SDS011;11028;51.156;17.130;2024-03-06T01:22:15;66.68;;;31.75;;
21731;SDS011;11028;51.156;17.130;2024-03-06T01:29:34;69.53;;;32.90;;
21731;SDS011;11028;51.156;17.130;2024-03-06T01:36:52;66.75;;;31.45;;
21731;SDS011;11028;51.156;17.130;2024-03-06T01:44:12;69.95;;;33.22;;
21731;SDS011;11028;51.156;17.130;2024-03-06T01:51:31;74.05;;;34.08;;
21731;SDS011;11028;51.156;17.130;2024-03-06T01:58:50;70.45;;;33.58;;
21731;SDS011;11028;51.156;17.130;2024-03-06T02:06:13;69.15;;;32.80;;
21731;SDS011;11028;51.156;17.130;2024-03-06T02:13:36;64.80;;;31.95;;
21731;SDS011;11028;51.156;17.130;2024-03-06T02:20:56;73.45;;;32.40;;
21731;SDS011;11028;51.156;17.130;2024-03-06T02:28:14;69.80;;;32.90;;
21731;SDS011;11028;51.156;17.130;2024-03-06T02:35:33;64.13;;;29.95;;
21731;SDS011;11028;51.156;17.130;2024-03-06T02:42:54;76.90;;;31.23;;
21731;SDS011;11028;51.156;17.130;2024-03-06T02:50:12;75.57;;;31.70;;
21731;SDS011;11028;51.156;17.130;2024-03-06T02:57:32;73.45;;;32.78;;
21731;SDS011;11028;51.156;17.130;2024-03-06T03:04:51;75.38;;;33.58;;
21731;SDS011;11028;51.156;17.130;2024-03-06T03:12:10;73.18;;;32.20;;
21731;SDS011;11028;51.156;17.130;2024-03-06T03:19:29;69.70;;;31.65;;
21731;SDS011;11028;51.156;17.130;2024-03-06T03:26:48;73.07;;;32.63;;
21731;SDS011;11028;51.156;17.130;2024-03-06T03:34:07;72.20;;;32.67;;
21731;SDS011;11028;51.156;17.130;2024-03-06T03:41:25;70.10;;;31.33;;
21731;SDS011;11028;51.156;17.130;2024-03-06T03:48:45;69.00;;;30.17;;
21731;SDS011;11028;51.156;17.130;2024-03-06T03:56:03;66.10;;;30.00;;
21731;SDS011;11028;51.156;17.130;2024-03-06T04:03:23;77.93;;;31.73;;
21731;SDS011;11028;51.156;17.130;2024-03-06T04:10:43;66.95;;;30.65;;
21731;SDS011;11028;51.156;17.130;2024-03-06T04:18:03;81.07;;;31.42;;
21731;SDS011;11028;51.156;17.130;2024-03-06T04:25:21;72.88;;;30.10;;
21731;SDS011;11028;51.156;17.130;2024-03-06T04:32:41;69.30;;;30.05;;
21731;SDS011;11028;51.156;17.130;2024-03-06T04:40:01;62.08;;;29.15;;
21731;SDS011;11028;51.156;17.130;2024-03-06T04:47:24;70.35;;;30.55;;
21731;SDS011;11028;51.156;17.130;2024-03-06T04:54:47;65.20;;;29.38;;
21731;SDS011;11028;51.156;17.130;2024-03-06T05:02:05;64.97;;;28.98;;
21731;SDS011;11028;51.156;17.130;2024-03-06T05:09:23;65.75;;;29.38;;
21731;SDS011;11028;51.156;17.130;2024-03-06T05:17:01;70.07;;;29.20;;
21731;SDS011;11028;51.156;17.130;2024-03-06T05:24:37;66.47;;;28.25;;
21731;SDS011;11028;51.156;17.130;2024-03-06T05:32:14;68.68;;;28.15;;
21731;SDS011;11028;51.156;17.130;2024-03-06T05:39:50;62.33;;;28.75;;
21731;SDS011;11028;51.156;17.130;2024-03-06T05:47:27;71.90;;;30.55;;
21731;SDS011;11028;51.156;17.130;2024-03-06T05:55:02;74.75;;;29.35;;
21731;SDS011;11028;51.156;17.130;2024-03-06T06:02:41;71.22;;;30.17;;
21731;SDS011;11028;51.156;17.130;2024-03-06T06:09:59;70.45;;;30.35;;
21731;SDS011;11028;51.156;17.130;2024-03-06T06:17:17;70.18;;;29.48;;
21731;SDS011;11028;51.156;17.130;2024-03-06T06:24:42;64.15;;;28.52;;
21731;SDS011;11028;51.156;17.130;2024-03-06T06:32:03;62.30;;;26.35;;
21731;SDS011;11028;51.156;17.130;2024-03-06T06:39:21;63.17;;;27.63;;
21731;SDS011;11028;51.156;17.130;2024-03-06T06:46:41;71.28;;;29.17;;
21731;SDS011;11028;51.156;17.130;2024-03-06T06:54:00;62.42;;;29.00;;
21731;SDS011;11028;51.156;17.130;2024-03-06T07:01:19;66.45;;;30.45;;
21731;SDS011;11028;51.156;17.130;2024-03-06T07:08:39;67.88;;;30.60;;
21731;SDS011;11028;51.156;17.130;2024-03-06T07:15:58;66.47;;;29.92;;
21731;SDS011;11028;51.156;17.130;2024-03-06T07:23:16;67.53;;;29.75;;
21731;SDS011;11028;51.156;17.130;2024-03-06T07:30:36;68.00;;;30.00;;
21731;SDS011;11028;51.156;17.130;2024-03-06T07:37:55;62.92;;;28.88;;
21731;SDS011;11028;51.156;17.130;2024-03-06T07:45:14;61.45;;;29.05;;
21731;SDS011;11028;51.156;17.130;2024-03-06T07:52:34;59.50;;;28.63;;
21731;SDS011;11028;51.156;17.130;2024-03-06T07:59:52;57.55;;;26.70;;
21731;SDS011;11028;51.156;17.130;2024-03-06T08:07:11;51.28;;;25.55;;
21731;SDS011;11028;51.156;17.130;2024-03-06T08:14:31;39.90;;;21.85;;
21731;SDS011;11028;51.156;17.130;2024-03-06T08:21:50;33.67;;;18.85;;
21731;SDS011;11028;51.156;17.130;2024-03-06T08:29:09;33.60;;;17.27;;
21731;SDS011;11028;51.156;17.130;2024-03-06T08:36:28;34.90;;;18.85;;
21731;SDS011;11028;51.156;17.130;2024-03-06T08:43:47;42.53;;;23.55;;
21731;SDS011;11028;51.156;17.130;2024-03-06T08:51:05;27.15;;;15.50;;
21731;SDS011;11028;51.156;17.130;2024-03-06T08:58:29;29.98;;;16.25;;
21731;SDS011;11028;51.156;17.130;2024-03-06T09:05:48;29.10;;;15.35;;
21731;SDS011;11028;51.156;17.130;2024-03-06T09:13:07;24.15;;;14.23;;
21731;SDS011;11028;51.156;17.130;2024-03-06T09:20:26;21.05;;;11.82;;
21731;SDS011;11028;51.156;17.130;2024-03-06T09:27:45;18.08;;;11.20;;
21731;SDS011;11028;51.156;17.130;2024-03-06T09:35:04;20.95;;;10.77;;
21731;SDS011;11028;51.156;17.130;2024-03-06T09:42:24;22.65;;;11.95;;
21731;SDS011;11028;51.156;17.130;2024-03-06T09:49:43;19.92;;;11.80;;
21731;SDS011;11028;51.156;17.130;2024-03-06T09:57:01;19.73;;;11.38;;
21731;SDS011;11028;51.156;17.130;2024-03-06T10:04:22;20.10;;;12.50;;
21731;SDS011;11028;51.156;17.130;2024-03-06T10:11:42;29.08;;;14.13;;
21731;SDS011;11028;51.156;17.130;2024-03-06T10:19:13;25.33;;;14.77;;
21731;SDS011;11028;51.156;17.130;2024-03-06T10:26:34;27.33;;;14.77;;
21731;SDS011;11028;51.156;17.130;2024-03-06T10:33:53;24.80;;;14.43;;
21731;SDS011;11028;51.156;17.130;2024-03-06T10:41:11;33.60;;;14.77;;
21731;SDS011;11028;51.156;17.130;2024-03-06T10:48:37;43.30;;;15.95;;
21731;SDS011;11028;51.156;17.130;2024-03-06T10:55:58;39.50;;;17.35;;
21731;SDS011;11028;51.156;17.130;2024-03-06T11:03:17;35.97;;;18.02;;
21731;SDS011;11028;51.156;17.130;2024-03-06T11:10:38;35.92;;;18.80;;
21731;SDS011;11028;51.156;17.130;2024-03-06T11:17:57;32.78;;;17.63;;
21731;SDS011;11028;51.156;17.130;2024-03-06T11:33:11;29.35;;;15.50;;
21731;SDS011;11028;51.156;17.130;2024-03-06T11:40:30;27.90;;;15.50;;
21731;SDS011;11028;51.156;17.130;2024-03-06T11:47:58;35.45;;;17.30;;
21731;SDS011;11028;51.156;17.130;2024-03-06T11:55:19;28.38;;;15.55;;
21731;SDS011;11028;51.156;17.130;2024-03-06T12:02:38;29.10;;;17.08;;
21731;SDS011;11028;51.156;17.130;2024-03-06T12:09:58;29.85;;;14.27;;
21731;SDS011;11028;51.156;17.130;2024-03-06T12:17:17;27.45;;;13.55;;
21731;SDS011;11028;51.156;17.130;2024-03-06T12:24:36;25.52;;;14.18;;
21731;SDS011;11028;51.156;17.130;2024-03-06T12:31:55;23.40;;;12.57;;
21731;SDS011;11028;51.156;17.130;2024-03-06T12:39:16;26.27;;;14.15;;
21731;SDS011;11028;51.156;17.130;2024-03-06T12:46:38;37.08;;;17.35;;
21731;SDS011;11028;51.156;17.130;2024-03-06T12:53:56;30.30;;;16.13;;
21731;SDS011;11028;51.156;17.130;2024-03-06T13:01:16;34.78;;;17.52;;
21731;SDS011;11028;51.156;17.130;2024-03-06T13:08:34;35.00;;;16.45;;
21731;SDS011;11028;51.156;17.130;2024-03-06T13:15:53;34.97;;;18.05;;
21731;SDS011;11028;51.156;17.130;2024-03-06T13:23:13;46.90;;;22.55;;
21731;SDS011;11028;51.156;17.130;2024-03-06T13:30:31;47.13;;;22.55;;
21731;SDS011;11028;51.156;17.130;2024-03-06T13:37:50;44.08;;;21.20;;
21731;SDS011;11028;51.156;17.130;2024-03-06T13:45:10;47.55;;;21.60;;
21731;SDS011;11028;51.156;17.130;2024-03-06T13:52:29;34.08;;;19.10;;
21731;SDS011;11028;51.156;17.130;2024-03-06T13:59:48;35.95;;;19.77;;
21731;SDS011;11028;51.156;17.130;2024-03-06T14:07:08;39.53;;;18.55;;
21731;SDS011;11028;51.156;17.130;2024-03-06T14:14:27;41.70;;;19.25;;
21731;SDS011;11028;51.156;17.130;2024-03-06T14:21:45;37.95;;;17.77;;
21731;SDS011;11028;51.156;17.130;2024-03-06T14:29:06;39.63;;;19.48;;
21731;SDS011;11028;51.156;17.130;2024-03-06T14:36:26;33.70;;;17.27;;
21731;SDS011;11028;51.156;17.130;2024-03-06T14:43:45;34.35;;;15.05;;
21731;SDS011;11028;51.156;17.130;2024-03-06T14:51:05;30.75;;;16.80;;
21731;SDS011;11028;51.156;17.130;2024-03-06T14:58:24;32.38;;;13.98;;
21731;SDS011;11028;51.156;17.130;2024-03-06T15:05:42;41.60;;;19.95;;
21731;SDS011;11028;51.156;17.130;2024-03-06T15:13:02;36.55;;;19.40;;
21731;SDS011;11028;51.156;17.130;2024-03-06T15:20:21;35.38;;;18.98;;
21731;SDS011;11028;51.156;17.130;2024-03-06T15:27:40;41.97;;;20.30;;
21731;SDS011;11028;51.156;17.130;2024-03-06T15:35:00;42.13;;;20.48;;
21731;SDS011;11028;51.156;17.130;2024-03-06T15:42:20;44.80;;;21.60;;
21731;SDS011;11028;51.156;17.130;2024-03-06T15:49:39;44.85;;;22.38;;
21731;SDS011;11028;51.156;17.130;2024-03-06T15:56:59;48.78;;;23.10;;
21731;SDS011;11028;51.156;17.130;2024-03-06T16:04:17;44.88;;;22.55;;
21731;SDS011;11028;51.156;17.130;2024-03-06T16:11:36;48.75;;;23.35;;
21731;SDS011;11028;51.156;17.130;2024-03-06T16:18:56;55.13;;;24.58;;
21731;SDS011;11028;51.156;17.130;2024-03-06T16:26:16;52.10;;;23.38;;
21731;SDS011;11028;51.156;17.130;2024-03-06T16:33:34;57.33;;;25.95;;
21731;SDS011;11028;51.156;17.130;2024-03-06T16:40:54;52.35;;;23.17;;
21731;SDS011;11028;51.156;17.130;2024-03-06T16:48:13;46.15;;;23.38;;
21731;SDS011;11028;51.156;17.130;2024-03-06T16:55:31;47.55;;;23.98;;
21731;SDS011;11028;51.156;17.130;2024-03-06T17:02:51;55.83;;;26.98;;
21731;SDS011;11028;51.156;17.130;2024-03-06T17:10:12;45.35;;;22.10;;
21731;SDS011;11028;51.156;17.130;2024-03-06T17:17:32;35.75;;;20.00;;
21731;SDS011;11028;51.156;17.130;2024-03-06T17:24:52;47.88;;;23.05;;
21731;SDS011;11028;51.156;17.130;2024-03-06T17:32:11;46.08;;;21.88;;
21731;SDS011;11028;51.156;17.130;2024-03-06T17:39:29;55.92;;;25.60;;
21731;SDS011;11028;51.156;17.130;2024-03-06T17:46:49;51.17;;;25.08;;
21731;SDS011;11028;51.156;17.130;2024-03-06T17:54:08;55.08;;;25.40;;
21731;SDS011;11028;51.156;17.130;2024-03-06T18:01:27;54.72;;;24.58;;
21731;SDS011;11028;51.156;17.130;2024-03-06T18:08:47;56.17;;;26.77;;
21731;SDS011;11028;51.156;17.130;2024-03-06T18:25:40;47.73;;;23.67;;
21731;SDS011;11028;51.156;17.130;2024-03-06T18:32:59;47.17;;;23.75;;
21731;SDS011;11028;51.156;17.130;2024-03-06T18:40:18;53.60;;;26.20;;
21731;SDS011;11028;51.156;17.130;2024-03-06T18:47:41;61.72;;;26.75;;
21731;SDS011;11028;51.156;17.130;2024-03-06T18:55:02;74.00;;;30.25;;
21731;SDS011;11028;51.156;17.130;2024-03-06T19:02:20;72.72;;;28.52;;
21731;SDS011;11028;51.156;17.130;2024-03-06T19:09:40;64.22;;;28.52;;
21731;SDS011;11028;51.156;17.130;2024-03-06T19:16:59;61.83;;;28.73;;
21731;SDS011;11028;51.156;17.130;2024-03-06T19:24:17;68.88;;;29.13;;
21731;SDS011;11028;51.156;17.130;2024-03-06T19:31:38;64.43;;;29.05;;
21731;SDS011;11028;51.156;17.130;2024-03-06T19:38:56;58.20;;;26.88;;
21731;SDS011;11028;51.156;17.130;2024-03-06T19:55:50;51.08;;;24.05;;
21731;SDS011;11028;51.156;17.130;2024-03-06T20:03:08;55.75;;;24.52;;
21731;SDS011;11028;51.156;17.130;2024-03-06T20:10:27;43.75;;;20.98;;
21731;SDS011;11028;51.156;17.130;2024-03-06T20:17:47;46.38;;;21.50;;
21731;SDS011;11028;51.156;17.130;2024-03-06T20:25:06;43.58;;;19.58;;
21731;SDS011;11028;51.156;17.130;2024-03-06T20:32:27;46.47;;;19.98;;
21731;SDS011;11028;51.156;17.130;2024-03-06T20:39:47;43.65;;;20.63;;
21731;SDS011;11028;51.156;17.130;2024-03-06T20:47:05;46.33;;;21.50;;
21731;SDS011;11028;51.156;17.130;2024-03-06T20:54:24;42.38;;;21.15;;
21731;SDS011;11028;51.156;17.130;2024-03-06T21:01:44;42.80;;;18.45;;
21731;SDS011;11028;51.156;17.130;2024-03-06T21:09:03;42.42;;;18.60;;
21731;SDS011;11028;51.156;17.130;2024-03-06T21:16:21;39.25;;;19.90;;
21731;SDS011;11028;51.156;17.130;2024-03-06T21:23:41;45.22;;;20.40;;
21731;SDS011;11028;51.156;17.130;2024-03-06T21:30:59;43.38;;;19.02;;
21731;SDS011;11028;51.156;17.130;2024-03-06T21:38:17;41.15;;;19.45;;
21731;SDS011;11028;51.156;17.130;2024-03-06T21:45:37;44.67;;;18.70;;
21731;SDS011;11028;51.156;17.130;2024-03-06T21:52:55;50.65;;;20.77;;
21731;SDS011;11028;51.156;17.130;2024-03-06T22:00:14;42.30;;;19.60;;
21731;SDS011;11028;51.156;17.130;2024-03-06T22:07:36;45.83;;;21.13;;
21731;SDS011;11028;51.156;17.130;2024-03-06T22:14:55;33.08;;;16.45;;
21731;SDS011;11028;51.156;17.130;2024-03-06T22:22:13;47.45;;;20.10;;
21731;SDS011;11028;51.156;17.130;2024-03-06T22:29:35;44.83;;;21.83;;
21731;SDS011;11028;51.156;17.130;2024-03-06T22:36:54;45.40;;;22.08;;
21731;SDS011;11028;51.156;17.130;2024-03-06T22:44:13;50.17;;;21.65;;
21731;SDS011;11028;51.156;17.130;2024-03-06T22:51:32;51.28;;;22.73;;
21731;SDS011;11028;51.156;17.130;2024-03-06T22:58:51;45.85;;;20.00;;
21731;SDS011;11028;51.156;17.130;2024-03-06T23:06:09;51.38;;;21.83;;
21731;SDS011;11028;51.156;17.130;2024-03-06T23:13:29;51.00;;;22.00;;
21731;SDS011;11028;51.156;17.130;2024-03-06T23:20:47;54.85;;;22.83;;
21731;SDS011;11028;51.156;17.130;2024-03-06T23:28:06;51.90;;;22.52;;
21731;SDS011;11028;51.156;17.130;2024-03-06T23:35:29;50.17;;;22.80;;
21731;SDS011;11028;51.156;17.130;2024-03-06T23:42:47;50.47;;;21.30;;
21731;SDS011;11028;51.156;17.130;2024-03-06T23:50:06;48.33;;;22.52;;
21731;SDS011;11028;51.156;17.130;2024-03-06T23:57:27;48.97;;;21.13;;
